Time;durP1;ratioP1;P1;durP2;ratioP2;P2;SDS_P1;SDS_P2;PMS_P1;PMS_P2;Temp;Humidity;BMP_temperature;BMP_pressure;BME280_temperature;BME280_humidity;BME280_pressure;Samples;Min_cycle;Max_cycle;Signal;HPM_P1;HPM_P2
2022/05/30 00:00:42;;;;;;;4.68;2.13;;;6.20;99.90;;;5.59;100.00;96663.84;4987360;28;20034;-39
2022/05/30 00:03:08;;;;;;;3.10;1.90;;;6.20;99.90;;;5.61;100.00;96669.88;4988195;28;20160;-42
2022/05/30 00:05:34;;;;;;;3.40;2.20;;;6.20;99.90;;;5.58;100.00;96655.13;5010448;23;23034;-49
2022/05/30 00:08:00;;;;;;;3.75;2.35;;;6.20;99.90;;;5.57;100.00;96660.41;4990415;28;20093;-49
2022/05/30 00:10:26;;;;;;;4.15;2.42;;;6.10;99.90;;;5.52;100.00;96644.84;4995982;28;20562;-49
2022/05/30 00:12:52;;;;;;;3.72;2.20;;;6.10;99.90;;;5.57;100.00;96657.78;4995484;28;20041;-49
2022/05/30 00:15:20;;;;;;;4.07;2.13;;;6.10;99.90;;;5.56;100.00;96654.31;4993417;28;20037;-48
2022/05/30 00:17:46;;;;;;;5.07;2.25;;;6.10;99.90;;;5.54;100.00;96643.91;4989346;28;20129;-47
2022/05/30 00:20:13;;;;;;;3.53;2.28;;;6.10;99.90;;;5.52;100.00;96648.31;4992749;28;20144;-48
2022/05/30 00:22:39;;;;;;;3.33;2.38;;;6.10;99.90;;;5.57;100.00;96648.19;4990747;28;20034;-48
2022/05/30 00:25:06;;;;;;;3.33;2.50;;;6.10;99.90;;;5.59;100.00;96651.59;4991206;28;20037;-50
2022/05/30 00:27:32;;;;;;;4.25;2.60;;;6.20;99.90;;;5.63;100.00;96649.75;4994578;28;20048;-50
2022/05/30 00:29:58;;;;;;;4.80;2.60;;;6.20;99.90;;;5.64;100.00;96647.09;4995549;28;20038;-48
2022/05/30 00:32:24;;;;;;;6.63;2.75;;;6.20;99.90;;;5.65;100.00;96637.47;4992594;28;20045;-54
2022/05/30 00:34:50;;;;;;;3.50;2.78;;;6.20;99.90;;;5.68;100.00;96640.03;4989637;28;23113;-50
2022/05/30 00:37:16;;;;;;;5.15;2.88;;;6.20;99.90;;;5.62;100.00;96621.91;4989571;28;20036;-50
2022/05/30 00:39:41;;;;;;;3.55;2.70;;;6.20;99.90;;;5.67;100.00;96636.56;4990710;28;20116;-48
2022/05/30 00:42:15;;;;;;;3.83;2.35;;;6.30;99.90;;;5.66;100.00;96632.22;4988051;28;20495;-49
2022/05/30 00:44:43;;;;;;;5.53;2.90;;;6.30;99.90;;;5.65;100.00;96627.91;4985767;28;20208;-50
2022/05/30 00:47:09;;;;;;;3.38;2.60;;;6.20;99.90;;;5.68;100.00;96634.78;4990262;28;20030;-50
2022/05/30 00:49:37;;;;;;;3.20;2.50;;;6.30;99.90;;;5.66;100.00;96631.38;4988375;28;20273;-48
2022/05/30 00:52:05;;;;;;;3.13;2.38;;;6.20;99.90;;;5.62;100.00;96627.13;4987622;28;20130;-52
2022/05/30 00:54:48;;;;;;;5.20;2.70;;;6.20;99.90;;;5.62;100.00;96624.53;4973322;28;20044;-52
2022/05/30 00:57:22;;;;;;;;;;;6.20;99.90;;;5.61;100.00;96625.41;4987692;28;20042;-48
2022/05/30 01:00:13;;;;;;;4.38;2.70;;;6.10;99.90;;;5.58;100.00;96621.13;4985762;28;19928;-51
2022/05/30 01:02:41;;;;;;;3.83;2.58;;;6.10;99.90;;;5.53;100.00;96612.56;4988573;28;20482;-50
2022/05/30 01:08:00;;;;;;;3.45;2.78;;;6.10;99.90;;;5.47;100.00;96608.38;4981389;28;20751;-50
2022/05/30 01:10:26;;;;;;;4.70;2.47;;;6.00;99.90;;;5.41;100.00;96605.91;5001864;28;20034;-50
2022/05/30 01:12:56;;;;;;;3.90;2.65;;;6.00;99.90;;;5.41;100.00;96599.84;4988833;28;20710;-51
2022/05/30 01:15:28;;;;;;;4.57;2.83;;;5.90;99.90;;;5.40;100.00;96609.47;4987371;28;20026;-49
2022/05/30 01:18:20;;;;;;;3.40;2.30;;;5.90;99.90;;;5.37;100.00;96595.63;4989383;28;20116;-50
2022/05/30 01:21:06;;;;;;;5.35;2.83;;;5.90;99.90;;;5.36;100.00;96584.28;4985674;28;20363;-51
2022/05/30 01:23:52;;;;;;;3.35;2.10;;;5.90;99.90;;;5.37;100.00;96586.00;4984226;28;20468;-51
2022/05/30 01:26:42;;;;;;;4.78;2.30;;;5.90;99.90;;;5.35;100.00;96582.59;4985657;28;20124;-50
2022/05/30 01:29:17;;;;;;;3.83;2.35;;;5.90;99.90;;;5.33;100.00;96577.41;5002761;28;20104;-51
2022/05/30 01:31:44;;;;;;;3.63;2.33;;;5.90;99.90;;;5.31;100.00;96578.31;5006357;28;20034;-49
2022/05/30 01:34:09;;;;;;;4.82;2.30;;;5.90;99.90;;;5.29;100.00;96574.91;4989899;28;20046;-51
2022/05/30 01:36:37;;;;;;;7.90;2.90;;;5.90;99.90;;;5.27;100.00;96569.72;4985710;28;20034;-48
2022/05/30 01:39:04;;;;;;;5.10;2.47;;;5.80;99.90;;;5.25;100.00;96565.44;4990892;28;20041;-50
2022/05/30 01:41:30;;;;;;;5.30;2.15;;;5.80;99.90;;;5.22;100.00;96566.38;4987574;28;20146;-51
2022/05/30 01:43:56;;;;;;;4.00;2.53;;;5.80;99.90;;;5.19;100.00;96558.63;4988101;28;20116;-48
2022/05/30 01:46:24;;;;;;;4.80;2.47;;;5.80;99.90;;;5.18;100.00;96556.91;4985515;28;20044;-50
2022/05/30 01:48:51;;;;;;;3.10;2.38;;;5.80;99.90;;;5.18;100.00;96569.13;4988661;28;20715;-50
2022/05/30 01:51:19;;;;;;;4.38;2.67;;;5.70;99.90;;;5.15;100.00;96560.47;4987930;28;20042;-50
2022/05/30 01:53:46;;;;;;;3.00;2.22;;;5.70;99.90;;;5.12;100.00;96559.72;4984461;28;20486;-52
2022/05/30 01:56:13;;;;;;;3.15;1.90;;;5.70;99.90;;;5.09;100.00;96568.47;4988296;28;20038;-57
2022/05/30 01:58:39;;;;;;;4.13;2.20;;;5.70;99.90;;;5.06;100.00;96565.09;4989646;28;20038;-51
2022/05/30 02:01:13;;;;;;;3.17;2.15;;;5.70;99.90;;;5.01;100.00;96567.88;4988201;28;20439;-50
2022/05/30 02:03:39;;;;;;;3.20;2.47;;;5.60;99.90;;;5.00;100.00;96565.28;4990178;28;20052;-53
2022/05/30 02:06:05;;;;;;;4.03;2.33;;;5.60;99.90;;;4.96;100.00;96559.28;4983220;28;20486;-51
2022/05/30 02:08:30;;;;;;;4.30;2.17;;;5.60;99.90;;;4.85;100.00;96535.22;4985075;28;20167;-52
2022/05/30 02:10:56;;;;;;;4.97;2.55;;;5.50;99.90;;;4.84;100.00;96538.72;4987022;28;20037;-51
2022/05/30 02:13:22;;;;;;;3.10;2.35;;;5.50;99.90;;;4.93;100.00;96551.53;4990175;28;20524;-52
2022/05/30 02:18:32;;;;;;;5.22;2.58;;;5.50;99.90;;;4.89;100.00;96557.75;4989036;28;20297;-50
2022/05/30 02:20:58;;;;;;;4.35;2.28;;;5.50;99.90;;;4.89;100.00;96555.97;4986749;28;20038;-49
2022/05/30 02:23:24;;;;;;;4.45;2.17;;;5.50;99.90;;;4.87;100.00;96552.56;4988638;28;20038;-52
2022/05/30 02:25:49;;;;;;;3.70;2.20;;;5.50;99.90;;;4.81;100.00;96550.13;4987624;28;20561;-50
2022/05/30 02:28:15;;;;;;;4.28;2.03;;;5.50;99.90;;;4.83;100.00;96557.91;4986167;28;20046;-53
2022/05/30 02:30:41;;;;;;;2.75;2.05;;;5.40;99.90;;;4.79;100.00;96557.13;4987605;28;21122;-54
2022/05/30 02:38:35;;;;;;;3.35;2.38;;;5.30;99.90;;;4.70;100.00;96560.88;4987702;28;20608;-53
2022/05/30 02:41:01;;;;;;;2.38;1.88;;;5.30;99.90;;;4.66;100.00;96568.81;4986100;28;20034;-50
2022/05/30 02:43:27;;;;;;;3.38;2.17;;;5.30;99.90;;;4.63;100.00;96561.94;4988111;28;20389;-52
2022/05/30 02:45:53;;;;;;;2.85;2.00;;;5.30;99.90;;;4.62;100.00;96561.97;4987387;28;20069;-50
2022/05/30 02:48:18;;;;;;;3.80;2.40;;;5.20;99.90;;;4.58;100.00;96566.44;4986168;28;20041;-51
2022/05/30 02:50:45;;;;;;;3.28;1.85;;;5.20;99.90;;;4.53;100.00;96561.31;4985110;28;20046;-53
2022/05/30 02:53:11;;;;;;;4.15;2.50;;;5.10;99.90;;;4.53;100.00;96565.69;4990815;28;20076;-50
2022/05/30 02:55:37;;;;;;;5.60;2.50;;;5.10;99.90;;;4.50;100.00;96565.75;4989614;28;20026;-52
2022/05/30 02:58:03;;;;;;;5.68;2.75;;;5.10;99.90;;;4.45;100.00;96571.13;4986798;28;20304;-50
2022/05/30 03:00:29;;;;;;;5.10;2.80;;;5.10;99.90;;;4.46;100.00;96579.78;4989508;28;20092;-52
2022/05/30 03:02:55;;;;;;;4.97;2.40;;;5.10;99.90;;;4.45;100.00;96584.16;4986434;28;20044;-50
2022/05/30 03:05:21;;;;;;;3.75;2.60;;;5.10;99.90;;;4.42;100.00;96575.56;4986094;28;20084;-51
2022/05/30 03:07:47;;;;;;;3.90;2.35;;;5.00;99.90;;;4.38;100.00;96583.47;4985630;28;20034;-53
2022/05/30 03:10:13;;;;;;;4.30;2.58;;;5.00;99.90;;;4.34;100.00;96587.06;4986581;28;20034;-52
2022/05/30 03:12:39;;;;;;;4.65;2.80;;;5.00;99.90;;;4.27;100.00;96579.41;4985300;28;20042;-50
2022/05/30 03:15:05;;;;;;;2.97;2.45;;;5.00;99.90;;;4.31;100.00;96587.13;4990037;28;20049;-53
2022/05/30 03:17:31;;;;;;;4.80;2.63;;;4.90;99.90;;;4.30;100.00;96587.16;5014895;28;20124;-54
2022/05/30 03:19:57;;;;;;;4.28;2.60;;;4.90;99.90;;;4.25;100.00;96587.25;4985380;28;20080;-50
2022/05/30 03:22:23;;;;;;;5.75;3.03;;;4.90;99.90;;;4.27;100.00;96595.94;4987110;28;20041;-50
2022/05/30 03:24:48;;;;;;;3.83;3.05;;;4.90;99.90;;;4.26;100.00;96604.66;4991842;28;20135;-50
2022/05/30 03:27:14;;;;;;;5.30;2.60;;;4.90;99.90;;;4.28;100.00;96594.16;4989805;28;20048;-51
2022/05/30 03:29:40;;;;;;;5.40;2.60;;;4.90;99.90;;;4.28;100.00;96594.16;4990373;28;20482;-49
2022/05/30 03:32:06;;;;;;;3.10;2.28;;;4.90;99.90;;;4.29;100.00;96593.25;4991534;28;20040;-50
2022/05/30 03:34:32;;;;;;;5.70;2.92;;;4.90;99.90;;;4.34;100.00;96599.22;4982595;28;20502;-50
2022/05/30 03:36:57;;;;;;;3.65;2.60;;;4.90;99.90;;;4.31;100.00;96597.56;4981417;28;20330;-49
2022/05/30 03:39:23;;;;;;;3.33;2.40;;;5.00;99.90;;;4.38;100.00;96603.50;4984537;28;20053;-53
2022/05/30 03:41:49;;;;;;;8.35;3.00;;;5.00;99.90;;;4.41;100.00;96600.78;4986786;28;20065;-51
2022/05/30 03:44:14;;;;;;;4.63;3.17;;;5.00;99.90;;;4.43;100.00;96598.16;4990243;28;20092;-53
2022/05/30 03:46:40;;;;;;;4.65;2.70;;;5.00;99.90;;;4.44;100.00;96602.47;4986788;28;20022;-49
2022/05/30 03:49:07;;;;;;;5.05;2.80;;;5.10;99.90;;;4.48;100.00;96598.88;4990779;28;20045;-50
2022/05/30 03:51:33;;;;;;;5.05;2.88;;;5.10;99.90;;;4.48;100.00;96606.72;4976463;28;20038;-52
2022/05/30 03:53:59;;;;;;;3.78;3.03;;;5.10;99.90;;;4.53;100.00;96599.63;4981754;28;20520;-49
2022/05/30 03:56:25;;;;;;;5.57;2.83;;;5.10;99.90;;;4.58;100.00;96606.44;4981363;28;20038;-48
2022/05/30 03:58:51;;;;;;;4.47;3.33;;;5.20;99.90;;;4.59;100.00;96610.78;4989223;28;20730;-50
2022/05/30 04:01:17;;;;;;;4.32;3.30;;;5.20;99.90;;;4.56;100.00;96603.03;4983897;28;20041;-50
2022/05/30 04:03:43;;;;;;;4.78;3.28;;;5.20;99.90;;;4.59;100.00;96608.19;4984962;28;20037;-54
2022/05/30 04:06:09;;;;;;;3.45;2.85;;;5.20;99.90;;;4.61;100.00;96608.09;4990476;28;20089;-49
2022/05/30 04:08:35;;;;;;;3.97;3.10;;;5.20;99.90;;;4.63;100.00;96608.06;4987247;28;20052;-51
2022/05/30 04:11:01;;;;;;;3.97;2.95;;;5.30;99.90;;;4.63;100.00;96603.72;4989350;28;20041;-54
2022/05/30 04:13:27;;;;;;;3.97;3.13;;;5.30;99.90;;;4.73;100.00;96614.78;4990150;28;20129;-50
2022/05/30 04:15:52;;;;;;;3.78;3.00;;;5.30;99.90;;;4.78;100.00;96615.50;4985858;28;20040;-52
2022/05/30 04:18:18;;;;;;;6.65;3.55;;;5.40;99.90;;;4.84;100.00;96617.09;4991450;28;20061;-50
2022/05/30 04:20:46;;;;;;;3.20;2.90;;;5.40;99.90;;;4.88;100.00;96606.53;4985508;28;21198;-50
2022/05/30 04:23:13;;;;;;;5.55;3.13;;;5.50;99.90;;;4.95;100.00;96610.69;4991043;28;20184;-50
2022/05/30 04:25:39;;;;;;;5.35;3.35;;;5.50;99.90;;;5.06;100.00;96613.03;4985462;28;20038;-50
2022/05/30 04:28:05;;;;;;;4.38;3.22;;;5.60;99.90;;;5.16;100.00;96611.00;4974603;28;20068;-50
2022/05/30 04:30:31;;;;;;;5.55;3.65;;;5.70;99.90;;;5.28;100.00;96609.81;4981147;28;20038;-49
2022/05/30 04:32:56;;;;;;;5.35;3.50;;;5.90;99.90;;;5.41;100.00;96602.47;4982913;28;20038;-49
2022/05/30 04:35:22;;;;;;;4.78;3.45;;;6.00;99.90;;;5.53;100.00;96604.72;4986135;28;20152;-53
2022/05/30 04:37:50;;;;;;;5.50;3.97;;;6.10;99.90;;;5.66;100.00;96608.66;4988622;28;20278;-50
2022/05/30 04:40:18;;;;;;;7.55;4.75;;;6.20;99.90;;;5.76;100.00;96606.66;4988979;28;20030;-52
2022/05/30 04:42:47;;;;;;;6.47;4.47;;;6.40;99.90;;;5.87;100.00;96609.78;4978474;28;20293;-48
2022/05/30 04:45:14;;;;;;;5.55;4.70;;;6.40;99.90;;;5.97;100.00;96610.38;4984607;28;20038;-47
2022/05/30 04:47:40;;;;;;;6.10;4.50;;;6.50;99.90;;;6.06;100.00;96607.47;4984380;28;20029;-48
2022/05/30 04:50:13;;;;;;;6.15;4.20;;;6.70;99.90;;;6.16;100.00;96610.66;4988038;28;20489;-49
2022/05/30 04:52:41;;;;;;;6.25;4.25;;;6.80;99.90;;;6.27;100.00;96619.00;4982377;28;20026;-50
2022/05/30 04:55:07;;;;;;;4.50;2.85;;;6.90;99.90;;;6.33;100.00;96620.56;4989636;28;20174;-50
2022/05/30 04:57:41;;;;;;;3.80;2.25;;;7.00;99.90;;;6.38;100.00;96621.28;4989138;28;20046;-47
2022/05/30 05:00:10;;;;;;;3.28;1.98;;;7.00;99.90;;;6.39;100.00;96617.78;4992343;28;20038;-48
2022/05/30 05:02:36;;;;;;;4.25;2.55;;;7.00;99.90;;;6.55;100.00;96622.50;4990104;28;20172;-50
2022/05/30 05:05:03;;;;;;;3.78;2.53;;;7.10;99.90;;;6.69;100.00;96620.25;4993030;28;21035;-50
2022/05/30 05:07:40;;;;;;;2.75;2.40;;;7.20;99.90;;;7.34;100.00;96631.97;4990419;28;20069;-53
2022/05/30 05:10:44;;;;;;;7.55;3.22;;;7.50;99.90;;;8.33;100.00;96633.47;4990856;28;20033;-49
2022/05/30 05:13:09;;;;;;;5.60;2.50;;;8.10;99.90;;;9.72;100.00;96626.63;4988484;28;20042;-47
2022/05/30 05:15:35;;;;;;;2.90;1.92;;;8.90;99.90;;;10.98;90.22;96632.94;4988736;28;20154;-49
2022/05/30 05:18:01;;;;;;;3.63;2.03;;;9.70;99.90;;;12.06;85.53;96634.34;4988183;28;20042;-48
2022/05/30 05:20:27;;;;;;;4.10;2.20;;;10.50;99.90;;;12.80;79.26;96636.34;4989267;28;20042;-48
2022/05/30 05:22:53;;;;;;;3.85;2.70;;;11.20;99.90;;;13.10;69.50;96640.75;4988766;28;20030;-49
2022/05/30 05:25:19;;;;;;;4.03;2.80;;;11.80;99.90;;;13.32;66.53;96630.63;4993036;28;20056;-48
2022/05/30 05:27:48;;;;;;;6.05;3.05;;;12.10;99.90;;;13.48;67.12;96641.16;4987772;28;20057;-47
2022/05/30 05:30:14;;;;;;;6.07;2.60;;;12.30;99.90;;;13.50;71.32;96638.41;4992274;28;20037;-48
2022/05/30 05:32:40;;;;;;;3.67;2.53;;;12.40;99.90;;;13.02;73.13;96653.59;4991483;28;20042;-47
2022/05/30 05:35:06;;;;;;;4.07;2.67;;;12.20;99.90;;;12.35;73.93;96659.19;4992050;28;20356;-50
2022/05/30 05:37:34;;;;;;;5.53;2.50;;;11.90;99.90;;;11.62;76.44;96665.69;4993884;28;20512;-50
2022/05/30 05:40:00;;;;;;;5.40;2.65;;;11.50;99.90;;;11.04;80.66;96653.72;4992244;28;20026;-50
2022/05/30 05:42:25;;;;;;;4.45;2.38;;;11.20;99.90;;;10.93;83.38;96671.00;4992483;28;20044;-50
2022/05/30 05:44:51;;;;;;;3.13;2.33;;;10.90;99.90;;;10.75;85.05;96649.91;4991892;28;20042;-48
2022/05/30 05:47:17;;;;;;;2.83;2.50;;;10.80;99.90;;;10.70;84.61;96675.66;4991744;28;20486;-47
2022/05/30 05:49:42;;;;;;;4.18;2.60;;;10.80;99.90;;;10.61;84.94;96671.69;4992095;28;20472;-47
2022/05/30 05:52:08;;;;;;;5.28;3.47;;;10.70;99.90;;;10.43;85.18;96672.56;4988293;28;20481;-48
2022/05/30 05:54:34;;;;;;;5.30;2.58;;;10.70;99.90;;;10.43;86.24;96669.94;4990438;28;20030;-48
2022/05/30 05:57:00;;;;;;;4.13;2.70;;;10.60;99.90;;;10.39;86.67;96665.72;4993140;28;20021;-47
2022/05/30 05:59:25;;;;;;;3.92;2.70;;;10.60;99.90;;;10.32;87.14;96670.47;4994299;28;20378;-46
2022/05/30 06:01:51;;;;;;;4.35;2.88;;;10.60;99.90;;;10.32;87.71;96673.94;4990888;28;20061;-51
2022/05/30 06:04:17;;;;;;;4.03;2.92;;;10.60;99.90;;;10.34;88.09;96681.78;5009812;23;20511;-42
2022/05/30 06:06:44;;;;;;;5.10;3.47;;;10.60;99.90;;;10.41;88.46;96672.66;4993095;28;20141;-43
2022/05/30 06:09:10;;;;;;;5.15;2.60;;;10.70;99.90;;;10.49;89.39;96674.91;4994692;28;20026;-42
2022/05/30 06:11:35;;;;;;;7.43;3.00;;;10.80;99.90;;;10.61;88.71;96678.75;4993318;28;20148;-45
2022/05/30 06:14:01;;;;;;;4.88;2.60;;;10.90;99.90;;;10.67;87.49;96668.72;4994926;28;20662;-44
2022/05/30 06:16:32;;;;;;;4.85;3.15;;;11.00;99.90;;;10.81;86.75;96678.59;4987813;28;20039;-46
2022/05/30 06:19:01;;;;;;;4.35;2.88;;;11.10;99.90;;;10.92;84.28;96680.72;4984541;28;20029;-47
2022/05/30 06:21:31;;;;;;;3.75;2.97;;;11.20;99.90;;;10.97;84.31;96676.06;4973577;28;20041;-43
2022/05/30 06:23:57;;;;;;;4.45;3.15;;;11.30;99.90;;;11.02;83.45;96673.22;4971692;28;20045;-44
2022/05/30 06:26:23;;;;;;;4.80;2.97;;;11.40;99.90;;;11.06;83.65;96670.31;4979772;28;20384;-43
2022/05/30 06:28:49;;;;;;;8.82;3.17;;;11.40;99.90;;;11.05;83.72;96673.03;4978752;28;20026;-44
2022/05/30 06:31:22;;;;;;;4.25;2.88;;;11.40;99.90;;;11.14;83.87;96679.63;4978434;28;20390;-47
2022/05/30 06:33:48;;;;;;;6.13;2.65;;;11.50;99.90;;;11.26;83.62;96674.59;4988767;28;20038;-45
2022/05/30 06:36:17;;;;;;;3.65;2.70;;;11.60;99.90;;;11.36;83.07;96682.91;4976489;28;20495;-43
2022/05/30 06:38:43;;;;;;;5.10;2.95;;;11.80;99.90;;;11.45;82.75;96692.97;4972103;28;20069;-45
2022/05/30 06:41:13;;;;;;;3.58;2.78;;;11.80;99.90;;;11.57;82.25;96691.47;4974787;28;20120;-48
2022/05/30 06:43:39;;;;;;;5.85;3.80;;;12.00;99.90;;;11.60;80.20;96693.13;4980712;28;20048;-45
2022/05/30 06:46:06;;;;;;;8.32;3.50;;;12.00;99.90;;;11.59;79.86;96694.03;4978348;28;20045;-46
2022/05/30 06:48:32;;;;;;;6.53;3.75;;;12.00;99.90;;;11.45;79.20;96697.41;4986833;28;20629;-44
2022/05/30 06:51:01;;;;;;;6.53;3.60;;;11.90;99.90;;;11.28;79.64;96693.00;4987983;28;20034;-46
2022/05/30 06:53:26;;;;;;;8.35;3.58;;;11.90;99.90;;;11.28;83.00;96704.38;4985786;28;20781;-45
2022/05/30 06:55:52;;;;;;;6.55;3.65;;;11.80;99.90;;;11.23;80.27;96705.56;4986395;28;20041;-46
2022/05/30 06:58:18;;;;;;;6.00;3.33;;;11.80;99.90;;;11.13;78.78;96712.25;4978589;28;20027;-46
2022/05/30 07:00:46;;;;;;;4.13;2.95;;;11.80;99.90;;;11.23;79.53;96708.19;4981374;28;20097;-44
2022/05/30 07:03:14;;;;;;;6.47;2.95;;;11.70;99.90;;;11.36;81.96;96711.94;4974788;28;20486;-46
2022/05/30 07:05:42;;;;;;;4.80;3.53;;;11.80;99.90;;;11.40;78.46;96717.91;4986169;28;20042;-44
2022/05/30 07:08:09;;;;;;;9.30;3.10;;;11.90;99.90;;;11.30;78.99;96695.56;4981920;28;20092;-47
2022/05/30 07:10:37;;;;;;;6.60;2.97;;;11.90;99.90;;;11.57;79.57;96714.41;4982914;28;20049;-48
2022/05/30 07:13:05;;;;;;;4.28;2.50;;;12.00;99.90;;;11.74;78.87;96708.25;4990001;28;20037;-45
2022/05/30 07:15:35;;;;;;;5.82;3.17;;;12.10;99.90;;;11.81;78.66;96713.13;4985108;28;20069;-45
2022/05/30 07:18:11;;;;;;;6.05;3.00;;;12.30;99.90;;;11.90;76.92;96717.09;4982559;28;20054;-44
2022/05/30 07:20:38;;;;;;;4.43;2.55;;;12.40;99.90;;;12.04;76.39;96724.28;4988154;28;20058;-46
2022/05/30 07:23:04;;;;;;;5.40;2.70;;;12.50;99.90;;;12.02;74.84;96726.16;5005438;28;20037;-47
2022/05/30 07:25:34;;;;;;;5.10;2.97;;;12.50;99.90;;;12.01;75.11;96724.44;4985335;28;20659;-47
2022/05/30 07:28:00;;;;;;;5.32;2.70;;;12.50;99.90;;;12.17;76.18;96717.41;4989422;28;20112;-45
2022/05/30 07:30:26;;;;;;;4.43;3.30;;;12.60;99.90;;;12.12;72.22;96727.38;4990429;28;20487;-44
2022/05/30 07:32:51;;;;;;;4.65;3.20;;;12.70;99.90;;;12.26;72.44;96723.09;4986157;28;20042;-46
2022/05/30 07:35:17;;;;;;;3.45;2.50;;;12.70;99.90;;;12.41;73.10;96724.94;4988893;28;20075;-46
2022/05/30 07:37:43;;;;;;;4.43;2.50;;;12.80;99.90;;;12.57;74.67;96724.94;4986475;28;20114;-45
2022/05/30 07:40:09;;;;;;;4.03;2.60;;;12.90;99.90;;;12.68;70.62;96729.63;4988862;28;20034;-45
2022/05/30 07:42:35;;;;;;;8.68;2.67;;;13.10;99.90;;;12.81;72.38;96714.75;4992556;28;20134;-46
2022/05/30 07:45:01;;;;;;;4.70;2.70;;;13.20;99.90;;;12.93;71.99;96726.44;4990798;28;20034;-45
2022/05/30 07:47:27;;;;;;;5.40;2.88;;;13.40;99.90;;;13.05;73.49;96722.25;4987668;28;20056;-49
2022/05/30 07:49:53;;;;;;;4.50;2.63;;;13.50;99.90;;;13.12;70.45;96715.66;4991936;28;20034;-47
2022/05/30 07:52:19;;;;;;;3.60;2.03;;;13.60;99.90;;;13.29;70.71;96727.91;4986017;28;20100;-48
2022/05/30 07:54:45;;;;;;;5.57;3.05;;;13.70;99.90;;;13.12;62.66;96729.75;4988347;28;20198;-48
2022/05/30 07:57:10;;;;;;;5.00;2.42;;;13.70;99.90;;;13.21;65.43;96720.41;4987749;28;20039;-45
2022/05/30 07:59:37;;;;;;;4.15;2.30;;;13.70;99.90;;;13.26;63.06;96722.78;4987497;28;20432;-46
2022/05/30 08:02:04;;;;;;;6.82;3.28;;;13.70;99.90;;;13.30;65.11;96732.28;4986477;28;20081;-44
2022/05/30 08:04:30;;;;;;;4.65;2.22;;;13.70;99.90;;;13.50;64.70;96726.66;4986365;28;20087;-48
2022/05/30 08:06:56;;;;;;;2.33;1.98;;;13.90;99.90;;;13.70;64.29;96720.16;4987264;28;20487;-44
2022/05/30 08:09:21;;;;;;;4.88;1.95;;;14.00;99.90;;;13.87;62.73;96719.16;4982570;28;20042;-45
2022/05/30 08:11:47;;;;;;;3.75;1.80;;;14.20;99.90;;;13.88;57.99;96727.97;4987006;28;20053;-44
2022/05/30 08:14:13;;;;;;;3.53;1.80;;;14.30;99.90;;;13.86;57.79;96725.41;4988309;28;20034;-46
2022/05/30 08:16:39;;;;;;;2.80;1.40;;;14.30;99.90;;;13.94;58.42;96715.19;4988872;28;20037;-46
2022/05/30 08:19:06;;;;;;;2.63;1.33;;;14.30;99.90;;;14.08;59.39;96716.97;4986305;28;20030;-47
2022/05/30 08:21:32;;;;;;;6.53;2.20;;;14.40;99.90;;;14.27;56.60;96727.31;4988860;28;20132;-45
2022/05/30 08:23:57;;;;;;;4.25;2.38;;;14.50;99.90;;;14.17;56.98;96723.50;4986263;28;20042;-48
2022/05/30 08:26:23;;;;;;;4.32;1.75;;;14.60;99.90;;;14.34;58.06;96725.13;4989271;28;20474;-46
2022/05/30 08:28:49;;;;;;;3.95;1.83;;;14.60;99.90;;;14.38;57.38;96725.78;4987047;28;20033;-47
2022/05/30 08:31:16;;;;;;;1.63;1.13;;;14.80;99.90;;;14.51;56.37;96722.22;4990222;28;20045;-44
2022/05/30 08:33:43;;;;;;;2.55;1.80;;;14.90;99.90;;;14.56;55.38;96718.47;4981389;28;20125;-47
2022/05/30 08:36:12;;;;;;;3.38;1.73;;;15.00;99.90;;;14.88;52.98;96724.38;4984627;28;20169;-47
2022/05/30 08:38:39;;;;;;;3.28;1.50;;;15.10;98.70;;;14.82;51.98;96725.63;4984463;28;20026;-48
2022/05/30 08:44:01;;;;;;;3.90;1.45;;;15.20;99.20;;;14.93;53.09;96727.59;4989855;28;20040;-47
2022/05/30 08:46:37;;;;;;;3.58;1.58;;;15.30;98.30;;;14.98;51.80;96724.63;4986392;28;20121;-48
2022/05/30 08:49:29;;;;;;;3.38;1.75;;;15.40;97.40;;;15.00;54.65;96728.88;5003517;28;20096;-48
2022/05/30 08:52:25;;;;;;;3.55;1.50;;;15.40;99.10;;;15.18;52.83;96728.59;4988007;28;20116;-48
2022/05/30 08:55:34;;;;;;;4.07;1.60;;;15.50;98.10;;;15.33;47.85;96727.59;4986747;28;20741;-48
2022/05/30 08:58:17;;;;;;;4.38;2.03;;;15.70;94.30;;;15.25;46.68;96727.25;4992131;28;20038;-46
2022/05/30 09:00:54;;;;;;;4.30;1.73;;;15.70;93.10;;;14.92;45.85;96722.38;4984471;28;20406;-48
2022/05/30 09:03:26;;;;;;;2.97;1.50;;;15.50;91.70;;;14.96;47.94;96719.41;4988414;28;20179;-49
2022/05/30 09:06:05;;;;;;;5.80;1.52;;;15.40;92.80;;;15.19;48.76;96722.34;4990720;28;20056;-47
2022/05/30 09:08:46;;;;;;;1.95;1.35;;;15.60;93.70;;;15.35;47.16;96717.72;4991434;28;20395;-45
2022/05/30 09:11:28;;;;;;;5.15;1.20;;;15.80;93.10;;;15.37;42.92;96728.25;4988711;28;20037;-48
2022/05/30 09:13:57;;;;;;;3.22;0.95;;;16.00;88.30;;;15.55;43.77;96726.16;4990651;28;20034;-45
2022/05/30 09:16:28;;;;;;;4.40;1.30;;;16.10;88.20;;;15.71;43.25;96724.16;4990671;28;20068;-47
2022/05/30 09:18:55;;;;;;;2.83;1.50;;;16.20;87.00;;;15.84;42.58;96724.19;4986262;28;20034;-49
2022/05/30 09:21:24;;;;;;;5.30;1.67;;;16.40;87.20;;;15.95;42.41;96712.81;5002657;28;20651;-48
2022/05/30 09:23:49;;;;;;;3.05;1.27;;;16.50;86.60;;;15.95;43.32;96724.31;4987241;28;20030;-48
2022/05/30 09:26:33;;;;;;;3.70;1.20;;;16.40;86.00;;;15.76;41.83;96716.75;4987856;28;20136;-47
2022/05/30 09:29:27;;;;;;;1.98;1.13;;;16.40;82.50;;;15.86;41.99;96724.94;4988673;28;20108;-49
2022/05/30 09:32:11;;;;;;;2.00;1.15;;;16.40;81.70;;;15.96;40.36;96719.84;4981928;28;20363;-46
2022/05/30 09:34:49;;;;;;;3.40;1.20;;;16.50;80.80;;;15.99;39.50;96723.16;5007847;28;20117;-48
2022/05/30 09:37:33;;;;;;;2.03;1.10;;;16.60;79.10;;;16.01;40.23;96726.53;4987705;28;20554;-45
2022/05/30 09:39:59;;;;;;;1.92;1.10;;;16.70;77.90;;;15.98;39.11;96724.09;4989734;28;20037;-48
2022/05/30 09:42:35;;;;;;;3.75;1.50;;;16.50;75.80;;;15.81;40.32;96721.78;4991898;28;20034;-49
2022/05/30 09:45:26;;;;;;;3.38;1.20;;;16.40;77.40;;;15.95;40.50;96726.97;4985572;28;20293;-45
2022/05/30 09:48:05;;;;;;;1.70;0.82;;;16.50;77.60;;;16.14;39.42;96731.00;4985490;28;20057;-47
2022/05/30 09:50:31;;;;;;;2.80;1.33;;;16.70;75.10;;;16.08;39.77;96734.94;4990656;28;20116;-49
2022/05/30 09:52:58;;;;;;;2.08;1.10;;;16.80;75.30;;;16.24;40.01;96734.72;4987167;28;20033;-45
2022/05/30 09:55:34;;;;;;;1.65;1.00;;;16.90;76.00;;;16.35;39.21;96723.34;4985186;28;20113;-44
2022/05/30 09:58:00;;;;;;;1.63;1.13;;;16.90;75.80;;;16.51;39.76;96726.59;4988294;28;20030;-47
2022/05/30 10:00:33;;;;;;;1.63;1.00;;;17.00;75.00;;;16.62;37.94;96728.50;4985328;28;20041;-47
2022/05/30 10:03:09;;;;;;;1.40;1.10;;;17.20;73.20;;;16.83;39.04;96726.09;4987957;28;20034;-48
2022/05/30 10:05:38;;;;;;;3.00;1.20;;;17.40;74.60;;;17.10;41.47;96722.38;4987025;28;20409;-48
2022/05/30 10:08:21;;;;;;;3.80;1.25;;;17.60;78.20;;;17.36;36.86;96715.94;4982514;28;20046;-47
2022/05/30 10:10:51;;;;;;;2.25;1.08;;;17.90;70.20;;;17.33;33.34;96721.50;4982429;28;20422;-48
2022/05/30 10:13:34;;;;;;;2.10;0.90;;;18.00;63.30;;;17.34;37.11;96722.38;4988352;28;20038;-48
2022/05/30 10:16:05;;;;;;;1.23;1.00;;;17.90;67.90;;;17.08;36.45;96725.13;4988970;28;20487;-48
2022/05/30 10:18:55;;;;;;;2.33;1.00;;;17.70;67.40;;;16.86;37.81;96725.88;4981632;28;20104;-45
2022/05/30 10:28:14;;;;;;;1.67;0.80;;;17.10;68.60;;;16.64;39.11;96723.06;4984176;28;20052;-45
2022/05/30 10:31:20;;;;;;;1.80;1.10;;;17.10;70.80;;;16.33;39.70;96720.78;4986276;28;20061;-48
2022/05/30 10:34:21;;;;;;;1.15;0.75;;;16.90;73.50;;;16.17;36.86;96725.47;4971864;28;20050;-47
2022/05/30 10:37:15;;;;;;;1.33;0.70;;;16.70;70.80;;;16.08;35.42;96732.28;4983630;28;20538;-49
2022/05/30 10:39:55;;;;;;;3.10;0.93;;;16.60;64.60;;;16.09;37.78;96735.78;4989807;28;20593;-46
2022/05/30 10:42:34;;;;;;;5.63;1.05;;;16.50;68.20;;;16.08;38.68;96734.94;4988391;28;20584;-49
2022/05/30 10:45:13;;;;;;;3.15;1.00;;;16.60;69.40;;;16.16;40.38;96737.06;4989155;28;20494;-48
2022/05/30 10:47:45;;;;;;;1.10;0.70;;;16.60;70.50;;;15.91;37.85;96735.25;4984292;28;20041;-48
2022/05/30 10:50:19;;;;;;;;;;;16.40;65.70;;;15.85;38.02;96736.53;4990021;28;20114;-47
2022/05/30 10:52:50;;;;;;;3.72;1.05;;;16.30;68.90;;;15.76;37.91;96738.03;4988331;28;19933;-47